Time;durP1;ratioP1;P1;durP2;ratioP2;P2;SDS_P1;SDS_P2;PMS_P1;PMS_P2;Temp;Humidity;BMP_temperature;BMP_pressure;BME280_temperature;BME280_humidity;BME280_pressure;Samples;Min_cycle;Max_cycle;Signal;HPM_P1;HPM_P2
2022/09/11 00:01:47;;;;;;;11.90;8.95;;;;;;;;;;4994634;28;20401;-54
2022/09/11 00:04:13;;;;;;;10.30;8.57;;;;;;;;;;4994139;28;20031;-54
2022/09/11 00:06:39;;;;;;;9.40;8.50;;;;;;;;;;4994301;28;20050;-54
2022/09/11 00:09:06;;;;;;;10.23;8.17;;;;;;;;;;4992948;28;20064;-55
2022/09/11 00:11:41;;;;;;;13.05;8.30;;;;;;;;;;4994531;28;20030;-54
2022/09/11 00:14:09;;;;;;;10.27;7.95;;;;;;;;;;4994010;28;20034;-56
2022/09/11 00:16:36;;;;;;;10.88;8.93;;;;;;;;;;4994631;28;20085;-55
2022/09/11 00:19:06;;;;;;;12.15;8.40;;;;;;;;;;4993699;28;20030;-54
2022/09/11 00:21:33;;;;;;;11.65;7.93;;;;;;;;;;4993895;28;20034;-53
2022/09/11 00:23:59;;;;;;;11.48;8.18;;;;;;;;;;4992321;28;20085;-56
2022/09/11 00:26:25;;;;;;;9.97;7.93;;;;;;;;;;4994171;28;20092;-55
2022/09/11 00:28:51;;;;;;;10.10;7.50;;;;;;;;;;4994067;28;20027;-56
2022/09/11 00:31:22;;;;;;;10.20;8.03;;;;;;;;;;4994271;28;20033;-56
2022/09/11 00:33:49;;;;;;;11.15;7.68;;;;;;;;;;4993399;28;20040;-56
2022/09/11 00:36:16;;;;;;;10.93;6.47;;;;;;;;;;4994272;28;20451;-54
2022/09/11 00:38:42;;;;;;;8.25;7.35;;;;;;;;;;4993773;28;20054;-54
2022/09/11 00:41:13;;;;;;;8.38;6.95;;;;;;;;;;4986264;28;20398;-54
2022/09/11 00:43:54;;;;;;;9.35;6.60;;;;;;;;;;4993104;28;20487;-56
2022/09/11 00:46:20;;;;;;;9.05;6.88;;;;;;;;;;4992712;28;20030;-54
2022/09/11 00:48:50;;;;;;;8.45;5.97;;;;;;;;;;4993200;28;20034;-56
2022/09/11 00:51:24;;;;;;;10.00;6.47;;;;;;;;;;4993904;28;20030;-56
2022/09/11 00:53:51;;;;;;;7.60;5.82;;;;;;;;;;4991755;28;20026;-54
2022/09/11 00:56:17;;;;;;;6.18;5.57;;;;;;;;;;4993492;28;20042;-54
2022/09/11 00:58:45;;;;;;;7.07;5.10;;;;;;;;;;4993415;28;20026;-54
2022/09/11 01:01:13;;;;;;;9.98;6.22;;;;;;;;;;4991824;28;20026;-55
2022/09/11 01:03:39;;;;;;;7.72;4.68;;;;;;;;;;4991399;28;20041;-54
2022/09/11 01:06:05;;;;;;;6.10;4.10;;;;;;;;;;4993674;28;20081;-55
2022/09/11 01:08:32;;;;;;;9.20;4.40;;;;;;;;;;4992878;28;20027;-54
2022/09/11 01:11:16;;;;;;;5.37;4.23;;;;;;;;;;4993434;28;20480;-56
2022/09/11 01:14:07;;;;;;;5.35;4.43;;;24.20;58.30;;;;;;4993048;28;20277;-56
2022/09/11 01:16:48;;;;;;;5.78;3.97;;;;;;;;;;4993408;28;20088;-56
2022/09/11 01:19:20;;;;;;;5.65;4.10;;;;;;;;;;4982712;28;20072;-57
2022/09/11 01:21:51;;;;;;;12.13;3.60;;;;;;;;;;4992926;28;20026;-55
2022/09/11 01:24:35;;;;;;;6.07;3.47;;;;;;;;;;4992392;28;20475;-54
2022/09/11 01:27:10;;;;;;;6.07;3.22;;;;;;;;;;4992850;28;20034;-54
2022/09/11 01:29:43;;;;;;;4.35;3.50;;;;;;;;;;4992664;28;20022;-54
2022/09/11 01:32:12;;;;;;;4.68;3.30;;;;;;;;;;4988760;28;20034;-54
2022/09/11 01:34:52;;;;;;;4.50;3.33;;;;;;;;;;4992530;28;20034;-56
2022/09/11 01:37:22;;;;;;;6.40;3.58;;;;;;;;;;4992417;28;20080;-54
2022/09/11 01:39:52;;;;;;;4.95;3.40;;;;;;;;;;4991539;28;20041;-54
2022/09/11 01:42:21;;;;;;;4.50;3.72;;;;;;;;;;4992752;28;20525;-56
2022/09/11 01:44:51;;;;;;;6.25;3.83;;;;;;;;;;4992148;28;20019;-56
2022/09/11 01:47:19;;;;;;;8.55;4.10;;;;;;;;;;4992031;28;20510;-56
2022/09/11 01:50:02;;;;;;;8.05;3.95;;;;;;;;;;4992707;28;20037;-55
2022/09/11 01:52:36;;;;;;;7.90;3.80;;;;;;;;;;4991823;28;20647;-54
2022/09/11 01:55:10;;;;;;;7.10;4.43;;;21.90;65.90;;;;;;4992296;28;20038;-57
2022/09/11 01:57:40;;;;;;;5.25;3.67;;;;;;;;;;4990716;28;20030;-53
2022/09/11 02:00:07;;;;;;;5.10;3.80;;;;;;;;;;4992386;28;20034;-53
2022/09/11 02:02:39;;;;;;;6.93;4.18;;;;;;;;;;4990911;28;20105;-55
2022/09/11 02:05:07;;;;;;;7.07;4.32;;;;;;;;;;4991184;28;20030;-55
2022/09/11 02:07:38;;;;;;;8.57;4.72;;;;;;;;;;4992113;28;20084;-56
2022/09/11 02:10:31;;;;;;;9.18;5.05;;;;;;;;;;4992335;28;20022;-54
2022/09/11 02:13:16;;;;;;;11.15;4.28;;;;;;;;;;4989644;28;20122;-54
2022/09/11 02:15:43;;;;;;;7.22;4.18;;;;;;;;;;4992430;28;20498;-55
2022/09/11 02:18:19;;;;;;;6.30;4.50;;;;;;;;;;4990402;28;20081;-53
2022/09/11 02:20:46;;;;;;;12.18;4.40;;;;;;;;;;4992475;28;20026;-54
2022/09/11 02:23:13;;;;;;;6.13;4.90;;;;;;;;;;4991990;28;20022;-54
2022/09/11 02:25:39;;;;;;;6.88;4.50;;;;;;;;;;4991952;28;20665;-53
2022/09/11 02:28:05;;;;;;;5.15;4.20;;;;;;;;;;4991665;28;20112;-58
2022/09/11 02:30:32;;;;;;;11.68;4.72;;;;;;;;;;4992278;28;20026;-56
2022/09/11 02:32:58;;;;;;;6.05;3.83;;;;;;;;;;4991542;28;20391;-53
2022/09/11 02:35:28;;;;;;;4.57;4.13;;;;;;;;;;4992153;28;20042;-53
2022/09/11 02:38:06;;;;;;;5.85;3.67;;;;;;;;;;4990944;28;20042;-54
2022/09/11 02:40:37;;;;;;;9.25;5.05;;;;;;;;;;4991768;28;20034;-53
2022/09/11 02:43:22;;;;;;;5.93;4.72;;;;;;;;;;4991461;28;20403;-56
2022/09/11 02:45:57;;;;;;;6.28;3.97;;;;;;;;;;4991220;28;20109;-54
2022/09/11 02:48:32;;;;;;;6.30;4.43;;;;;;;;;;4991523;28;20475;-54
2022/09/11 02:51:02;;;;;;;4.50;4.05;;;;;;;;;;4991278;28;20085;-54
2022/09/11 02:53:34;;;;;;;6.65;4.43;;;;;;;;;;4991023;28;20034;-54
2022/09/11 02:56:03;;;;;;;7.70;3.65;;;;;;;;;;4991243;28;20446;-54
2022/09/11 02:58:36;;;;;;;4.45;3.33;;;;;;;;;;4991978;28;20038;-53
2022/09/11 03:01:02;;;;;;;5.47;3.75;;;;;;;;;;4990294;28;20081;-56
2022/09/11 03:03:36;;;;;;;5.68;3.33;;;;;;;;;;4989836;28;20026;-54
2022/09/11 03:06:02;;;;;;;5.70;3.28;;;;;;;;;;4988820;28;20027;-55
2022/09/11 03:08:30;;;;;;;6.20;3.17;;;;;;;;;;4991810;28;20368;-54
2022/09/11 03:10:56;;;;;;;4.97;3.25;;;;;;;;;;4991769;28;20276;-56
2022/09/11 03:13:22;;;;;;;4.95;3.45;;;;;;;;;;4991558;28;20030;-56
2022/09/11 03:15:48;;;;;;;4.82;3.60;;;;;;;;;;4991537;28;20038;-55
2022/09/11 03:18:14;;;;;;;6.57;3.95;;;;;;;;;;4990299;28;20042;-54
2022/09/11 03:20:45;;;;;;;7.80;3.73;;;;;;;;;;4990882;28;20030;-54
2022/09/11 03:23:11;;;;;;;5.00;3.25;;;;;;;;;;4991829;28;20116;-53
2022/09/11 03:25:37;;;;;;;7.00;3.70;;;;;;;;;;4995315;28;20026;-54
2022/09/11 03:28:03;;;;;;;5.95;3.75;;;;;;;;;;4994868;28;20396;-53
2022/09/11 03:30:29;;;;;;;6.40;3.05;;;;;;;;;;4994215;28;20483;-54
2022/09/11 03:32:57;;;;;;;7.05;3.63;;;;;;;;;;4994520;28;20403;-54
2022/09/11 03:35:24;;;;;;;6.45;3.33;;;;;;;;;;4993556;28;20097;-54
2022/09/11 03:37:50;;;;;;;4.63;3.05;;;;;;;;;;4994585;28;20026;-53
2022/09/11 03:40:16;;;;;;;3.47;3.10;;;;;;;;;;4995174;28;20399;-54
2022/09/11 03:42:42;;;;;;;6.73;3.50;;;;;;;;;;4994527;28;20045;-53
2022/09/11 03:45:08;;;;;;;4.23;3.20;;;;;;;;;;4994418;28;20025;-53
2022/09/11 03:47:35;;;;;;;4.32;3.38;;;;;;;;;;4994645;28;20491;-56
2022/09/11 03:50:01;;;;;;;4.45;3.15;;;;;;;;;;4993500;28;20034;-53
2022/09/11 03:52:29;;;;;;;4.05;2.85;;;;;;;;;;4994464;28;20026;-54
2022/09/11 03:54:56;;;;;;;4.05;2.50;;;;;;;;;;4989101;28;20031;-56
2022/09/11 03:57:22;;;;;;;;;;;;;;;;;;4993868;28;20105;-56
2022/09/11 03:59:48;;;;;;;5.63;2.90;;;;;;;;;;4994284;28;20021;-54
2022/09/11 04:02:14;;;;;;;5.93;3.58;;;;;;;;;;4993836;28;20042;-54
2022/09/11 04:04:40;;;;;;;4.83;3.57;;;;;;;;;;4994240;28;20042;-55
2022/09/11 04:07:06;;;;;;;6.57;3.03;;;;;;;;;;4994461;28;20277;-54
2022/09/11 04:09:32;;;;;;;5.63;3.40;;;;;;;;;;4994786;28;20026;-54
2022/09/11 04:11:58;;;;;;;4.30;3.03;;;;;;;;;;4994241;28;20270;-56
2022/09/11 04:14:24;;;;;;;4.70;3.20;;;;;;;;;;4992987;28;20088;-56
2022/09/11 04:16:50;;;;;;;4.10;3.47;;;;;;;;;;4993880;28;20041;-56
2022/09/11 04:19:17;;;;;;;6.05;3.97;;;;;;;;;;4993695;28;20079;-56
2022/09/11 04:21:43;;;;;;;4.28;3.70;;;;;;;;;;4993290;28;20415;-56
2022/09/11 04:24:09;;;;;;;4.22;3.83;;;;;;;;;;4993717;28;20041;-57
2022/09/11 04:26:35;;;;;;;6.17;3.93;;;;;;;;;;4992416;28;20035;-54
2022/09/11 04:29:01;;;;;;;5.07;3.70;;;;;;;;;;4988032;28;20027;-57
2022/09/11 04:31:27;;;;;;;5.00;3.90;;;;;;;;;;4986310;28;20042;-54
2022/09/11 04:33:54;;;;;;;5.20;3.67;;;;;;;;;;4993398;28;20519;-57
2022/09/11 04:36:21;;;;;;;11.18;4.78;;;;;;;;;;4994038;28;20510;-56
2022/09/11 04:38:48;;;;;;;7.03;3.70;;;;;;;;;;4993780;28;20026;-55
2022/09/11 04:41:15;;;;;;;5.80;4.40;;;;;;;;;;4993686;28;20034;-55
2022/09/11 04:43:40;;;;;;;;;;;;;;;;;;4993538;28;20034;-55
2022/09/11 04:46:08;;;;;;;6.55;4.22;;;;;;;;;;4992007;28;19932;-54
2022/09/11 04:48:36;;;;;;;6.57;4.97;;;;;;;;;;4992554;28;20554;-55
2022/09/11 04:51:04;;;;;;;8.25;5.13;;;;;;;;;;4993903;28;20110;-54
2022/09/11 04:53:33;;;;;;;5.70;4.13;;;;;;;;;;4993220;28;20054;-54
2022/09/11 04:56:06;;;;;;;4.88;4.13;;;;;;;;;;4992942;28;20776;-54
2022/09/11 04:58:33;;;;;;;5.28;4.38;;;;;;;;;;4992786;28;20058;-53
2022/09/11 05:00:59;;;;;;;5.30;4.18;;;;;;;;;;4993186;28;20465;-54
2022/09/11 05:03:25;;;;;;;5.80;3.85;;;;;;;;;;4992612;28;20037;-56
2022/09/11 05:05:51;;;;;;;6.85;3.80;;;;;;;;;;4993110;28;20062;-56
2022/09/11 05:08:17;;;;;;;4.23;3.70;;;;;;;;;;4992964;28;20063;-54
2022/09/11 05:10:45;;;;;;;5.22;4.13;;;;;;;;;;4993301;28;20031;-53
2022/09/11 05:13:11;;;;;;;6.32;3.80;;;;;;;;;;4992859;28;20036;-53
2022/09/11 05:15:37;;;;;;;6.17;3.77;;;;;;;;;;4993541;28;20062;-50
2022/09/11 05:18:03;;;;;;;6.47;4.00;;;;;;;;;;4993035;28;20035;-50
2022/09/11 05:20:29;;;;;;;6.00;3.67;;;;;;;;;;4991900;28;20125;-50
2022/09/11 05:22:57;;;;;;;6.45;4.00;;;;;;;;;;4992286;28;20061;-50
2022/09/11 05:25:24;;;;;;;7.15;4.00;;;;;;;;;;4993103;28;20416;-50
2022/09/11 05:27:50;;;;;;;;;;;;;;;;;;4992105;28;20037;-51
2022/09/11 05:30:16;;;;;;;9.65;4.45;;;;;;;;;;4992417;28;19910;-50
2022/09/11 05:32:42;;;;;;;7.47;3.63;;;;;;;;;;4992555;28;20755;-50
2022/09/11 05:35:08;;;;;;;6.40;3.95;;;;;;;;;;4993152;28;20054;-49
2022/09/11 05:37:35;;;;;;;5.80;3.53;;;;;;;;;;4992618;28;20038;-49
2022/09/11 05:40:02;;;;;;;9.77;3.90;;;;;;;;;;4992434;28;20029;-49
2022/09/11 05:42:28;;;;;;;5.72;3.83;;;;;;;;;;4992668;28;20061;-49
2022/09/11 05:44:54;;;;;;;7.20;4.45;;;;;;;;;;4991471;28;20034;-49
2022/09/11 05:47:20;;;;;;;4.70;3.83;;;;;;;;;;4992111;28;20030;-50
2022/09/11 05:49:46;;;;;;;5.05;3.83;;;;;;;;;;4986644;28;20506;-49
2022/09/11 05:52:13;;;;;;;5.25;3.85;;;;;;;;;;4992532;28;20034;-52
2022/09/11 05:54:39;;;;;;;6.00;3.42;;;;;;;;;;4992427;28;20058;-51
2022/09/11 05:57:05;;;;;;;8.07;3.88;;;;;;;;;;4992739;28;20081;-50
2022/09/11 05:59:31;;;;;;;5.18;3.60;;;;;;;;;;4991904;28;20488;-49
2022/09/11 06:01:57;;;;;;;4.80;3.07;;;;;;;;;;4992014;28;20038;-49
2022/09/11 06:04:23;;;;;;;5.30;3.33;;;;;;;;;;4992425;28;20023;-50
2022/09/11 06:06:49;;;;;;;4.88;3.30;;;;;;;;;;4991767;28;20077;-50
2022/09/11 06:09:15;;;;;;;5.90;3.90;;;;;;;;;;4991405;28;20117;-52
2022/09/11 06:11:42;;;;;;;6.13;3.70;;;;;;;;;;4992107;28;20099;-55
2022/09/11 06:14:08;;;;;;;6.03;2.70;;;;;;;;;;4991089;28;20034;-53
2022/09/11 06:16:34;;;;;;;5.07;3.03;;;;;;;;;;4990626;28;20121;-53
2022/09/11 06:19:01;;;;;;;6.50;3.77;;;;;;;;;;4992171;28;20034;-53
2022/09/11 06:21:28;;;;;;;4.57;2.33;;;;;;;;;;4989857;28;20031;-54
2022/09/11 06:23:54;;;;;;;;;;;;;;;;;;4992454;28;20027;-53
2022/09/11 06:26:21;;;;;;;7.88;3.00;;;;;;;;;;4991414;28;19924;-53
2022/09/11 06:28:47;;;;;;;5.22;2.65;;;;;;;;;;4990311;28;20109;-54
2022/09/11 06:31:15;;;;;;;3.55;2.65;;;;;;;;;;4992644;28;20034;-55
2022/09/11 06:33:41;;;;;;;3.20;2.45;;;;;;;;;;4993466;28;20039;-53
2022/09/11 06:36:09;;;;;;;5.88;2.72;;;;;;;;;;4992095;28;20375;-53
2022/09/11 06:38:37;;;;;;;2.90;2.33;;;;;;;;;;4983909;28;20096;-53
2022/09/11 06:41:03;;;;;;;3.25;2.78;;;;;;;;;;4991495;28;20030;-53
2022/09/11 06:43:30;;;;;;;5.20;3.42;;;;;;;;;;4990647;28;20103;-54
2022/09/11 06:46:03;;;;;;;4.15;2.75;;;;;;;;;;4991675;28;20041;-55
2022/09/11 06:48:29;;;;;;;5.47;2.92;;;;;;;;;;4992082;28;20036;-53
2022/09/11 06:50:56;;;;;;;4.28;2.70;;;;;;;;;;4991959;28;20030;-52
2022/09/11 06:53:22;;;;;;;6.13;2.53;;;;;;;;;;4991637;28;20045;-53
2022/09/11 06:55:48;;;;;;;2.92;2.35;;;;;;;;;;4990019;28;20030;-55
2022/09/11 06:58:14;;;;;;;2.78;2.05;;;;;;;;;;4992368;28;20050;-53
2022/09/11 07:00:40;;;;;;;2.93;2.63;;;;;;;;;;4995300;28;20555;-53
2022/09/11 07:03:06;;;;;;;3.03;1.75;;;;;;;;;;4995826;28;20118;-53
2022/09/11 07:05:32;;;;;;;6.95;2.22;;;;;;;;;;4994409;28;20102;-53
2022/09/11 07:07:58;;;;;;;3.07;2.03;;;;;;;;;;4994749;28;20438;-53
2022/09/11 07:10:25;;;;;;;3.25;2.53;;;;;;;;;;4995171;28;20499;-53
2022/09/11 07:12:54;;;;;;;7.23;2.83;;;;;;;;;;4994677;28;20022;-64
2022/09/11 07:15:21;;;;;;;8.00;2.58;;;;;;;;;;5039209;23;20034;-58
2022/09/11 07:17:47;;;;;;;4.38;2.63;;;;;;;;;;5033826;28;20044;-55
2022/09/11 07:20:13;;;;;;;4.50;2.83;;;;;;;;;;5034934;28;20060;-56
2022/09/11 07:22:39;;;;;;;7.22;1.75;;;;;;;;;;5030534;28;20026;-58
2022/09/11 07:25:06;;;;;;;4.37;2.00;;;;;;;;;;5012013;28;20037;-52
2022/09/11 07:27:32;;;;;;;2.55;1.60;;;;;;;;;;4995729;28;20364;-56
2022/09/11 07:29:58;;;;;;;9.45;5.68;;;;;;;;;;4995892;28;20149;-57
2022/09/11 07:32:25;;;;;;;4.28;1.80;;;;;;;;;;4995975;28;20104;-56
2022/09/11 07:34:51;;;;;;;3.22;2.00;;;;;;;;;;4995520;28;20034;-56
2022/09/11 07:37:17;;;;;;;3.38;1.80;;;;;;;;;;4995745;28;20114;-52
2022/09/11 07:39:43;;;;;;;2.10;1.30;;;;;;;;;;4995677;28;20065;-54
2022/09/11 07:42:10;;;;;;;1.67;1.40;;;;;;;;;;4995450;28;20054;-52
2022/09/11 07:44:36;;;;;;;3.05;1.33;;;;;;;;;;4995287;28;20093;-53
2022/09/11 07:47:03;;;;;;;1.75;1.35;;;;;;;;;;4995422;28;20451;-53
2022/09/11 07:49:29;;;;;;;1.90;1.00;;;;;;;;;;4995428;28;20630;-53
2022/09/11 07:51:55;;;;;;;5.00;1.10;;;;;;;;;;4994138;28;20030;-55
2022/09/11 07:54:21;;;;;;;3.47;1.50;;;;;;;;;;4995148;28;20301;-55
2022/09/11 07:56:47;;;;;;;2.78;1.10;;;;;;;;;;4995151;28;20050;-58
2022/09/11 07:59:16;;;;;;;2.58;1.27;;;;;;;;;;4995179;28;20037;-54
2022/09/11 08:01:43;;;;;;;2.50;1.10;;;;;;;;;;4995176;28;20448;-53
2022/09/11 08:04:10;;;;;;;2.77;1.00;;;;;;;;;;4995063;28;20080;-57
2022/09/11 08:06:37;;;;;;;2.90;1.30;;;;;;;;;;4993780;28;20265;-56
2022/09/11 08:09:04;;;;;;;3.05;1.08;;;;;;;;;;4994350;28;20034;-55
2022/09/11 08:11:34;;;;;;;4.28;1.30;;;;;;;;;;4993818;28;20535;-56
2022/09/11 08:14:00;;;;;;;1.10;1.00;;;;;;;;;;4995042;28;20034;-54
2022/09/11 08:16:26;;;;;;;2.08;1.27;;;;;;;;;;4994656;28;20034;-53
2022/09/11 08:18:53;;;;;;;4.95;0.98;;;;;;;;;;4994837;28;20113;-53
2022/09/11 08:21:19;;;;;;;;;;;;;;;;;;4995259;28;20030;-51
2022/09/11 08:23:45;;;;;;;2.38;1.10;;;;;;;;;;4994624;28;20445;-54
2022/09/11 08:26:11;;;;;;;4.97;1.48;;;;;;;;;;4994705;28;20034;-58
2022/09/11 08:28:38;;;;;;;2.85;1.00;;;;;;;;;;4994782;28;20085;-52
2022/09/11 08:31:05;;;;;;;2.00;1.42;;;;;;;;;;4994600;28;20081;-57
2022/09/11 08:33:32;;;;;;;;;;;;;;;;;;4994996;28;20443;-57
2022/09/11 08:35:58;;;;;;;1.30;1.20;;;;;;;;;;4998165;28;19917;-53
2022/09/11 08:38:24;;;;;;;1.80;1.20;;;;;;;;;;4994538;28;20471;-54
2022/09/11 08:40:51;;;;;;;3.50;1.48;;;;;;;;;;4994383;28;20030;-54
2022/09/11 08:43:38;;;;;;;2.17;1.53;;;;;;;;;;4994254;28;20400;-51
2022/09/11 08:46:08;;;;;;;2.85;1.30;;;;;;;;;;4994371;28;20025;-57
2022/09/11 08:48:43;;;;;;;1.75;1.48;;;;;;;;;;4994408;28;20446;-52
2022/09/11 08:51:14;;;;;;;2.25;1.30;;;21.60;64.80;;;;;;4994469;28;20029;-53
2022/09/11 08:53:40;;;;;;;1.50;1.40;;;;;;;;;;4994133;28;20026;-56
2022/09/11 08:56:10;;;;;;;1.27;1.17;;;;;;;;;;4995216;28;20438;-55
2022/09/11 08:58:36;;;;;;;2.47;1.20;;;;;;;;;;5000616;28;20113;-55
2022/09/11 09:01:21;;;;;;;4.37;1.30;;;;;;;;;;5008866;28;20041;-56
2022/09/11 09:04:04;;;;;;;1.52;1.30;;;;;;;;;;5002772;28;20097;-54
2022/09/11 09:06:36;;;;;;;4.50;1.30;;;;;;;;;;5002951;28;20045;-56
2022/09/11 09:09:03;;;;;;;4.28;1.23;;;;;;;;;;5000141;28;20076;-56
2022/09/11 09:11:37;;;;;;;1.75;1.35;;;23.90;59.10;;;;;;5001317;28;20018;-55
2022/09/11 09:14:21;;;;;;;2.15;1.30;;;24.20;58.50;;;;;;5004793;28;20025;-53
2022/09/11 09:17:25;;;;;;;3.83;1.38;;;24.10;59.00;;;;;;5000644;28;20030;-54
2022/09/11 09:20:16;;;;;;;1.92;1.40;;;24.10;58.70;;;;;;4946118;29;20530;-51
2022/09/11 09:22:53;;;;;;;4.53;1.38;;;24.20;58.60;;;;;;5006024;28;20417;-55
2022/09/11 09:25:22;;;;;;;6.15;1.75;;;24.30;58.30;;;;;;4998086;28;20391;-56
2022/09/11 09:28:01;;;;;;;2.85;1.75;;;24.30;58.20;;;;;;4993419;28;20026;-56
2022/09/11 09:30:33;;;;;;;4.00;1.38;;;24.40;58.10;;;;;;4993290;28;20042;-55
2022/09/11 09:33:26;;;;;;;3.58;1.42;;;24.50;58.00;;;;;;4993092;28;20033;-57
2022/09/11 09:35:53;;;;;;;1.58;1.48;;;24.40;57.10;;;;;;4993241;28;20061;-55
2022/09/11 09:38:25;;;;;;;3.75;1.80;;;24.40;57.80;;;;;;4993124;28;20427;-56
2022/09/11 09:41:00;;;;;;;6.18;1.60;;;24.60;58.00;;;;;;4993224;28;20030;-56
2022/09/11 09:43:26;;;;;;;1.45;1.27;;;24.70;57.70;;;;;;4993007;28;20050;-54
2022/09/11 09:46:05;;;;;;;6.23;1.33;;;24.70;58.00;;;;;;4993130;28;20395;-57
2022/09/11 09:48:38;;;;;;;3.85;1.63;;;24.70;57.40;;;;;;4991808;28;20069;-55
2022/09/11 09:51:04;;;;;;;2.42;1.60;;;24.90;57.20;;;;;;4992834;28;20106;-57
2022/09/11 09:53:50;;;;;;;6.03;1.90;;;24.90;56.70;;;;;;4992841;28;20113;-56
2022/09/11 09:56:18;;;;;;;5.70;1.30;;;24.90;55.60;;;;;;4993139;28;20038;-57
2022/09/11 09:59:14;;;;;;;2.35;0.80;;;24.90;55.50;;;;;;4991591;28;20394;-57
2022/09/11 10:01:45;;;;;;;2.47;1.00;;;24.90;54.30;;;;;;4992947;28;20030;-56
2022/09/11 10:04:23;;;;;;;4.15;1.50;;;24.90;55.10;;;;;;4993132;28;20608;-57
2022/09/11 10:07:04;;;;;;;3.00;1.60;;;25.10;55.50;;;;;;4992893;28;20467;-57
2022/09/11 10:09:30;;;;;;;2.55;1.35;;;25.00;55.10;;;;;;4992817;28;20030;-55
2022/09/11 10:12:11;;;;;;;4.38;2.00;;;24.90;55.60;;;;;;4992870;28;20026;-55
2022/09/11 10:15:05;;;;;;;3.75;1.58;;;24.90;55.80;;;;;;4992547;28;20081;-56
2022/09/11 10:17:34;;;;;;;5.97;1.92;;;25.10;55.90;;;;;;4992373;28;20073;-59
2022/09/11 10:20:17;;;;;;;5.72;1.95;;;25.20;55.40;;;;;;4992670;28;20023;-57
2022/09/11 10:22:46;;;;;;;2.35;1.60;;;25.10;54.90;;;;;;4992293;28;20038;-57
2022/09/11 10:25:18;;;;;;;4.40;1.33;;;25.20;55.90;;;;;;4992622;28;20468;-59
2022/09/11 10:28:04;;;;;;;2.83;1.50;;;25.20;55.30;;;;;;4992536;28;20084;-58
2022/09/11 10:30:44;;;;;;;2.65;1.25;;;25.20;55.10;;;;;;4992674;28;20034;-60
2022/09/11 10:33:25;;;;;;;6.22;1.45;;;25.30;55.50;;;;;;4992265;28;20026;-59
2022/09/11 10:35:57;;;;;;;4.45;1.80;;;25.40;55.90;;;;;;4992504;28;20098;-58
2022/09/11 10:38:43;;;;;;;4.32;1.83;;;25.50;55.20;;;;;;4992583;28;20403;-58
2022/09/11 10:41:14;;;;;;;2.30;1.80;;;25.50;54.60;;;;;;4992491;28;20495;-58
2022/09/11 10:43:40;;;;;;;2.70;1.80;;;;;;;;;;4992313;28;20022;-58
2022/09/11 10:46:18;;;;;;;3.30;2.10;;;;;;;;;;4992356;28;20030;-58
2022/09/11 10:48:55;;;;;;;2.30;1.63;;;;;;;;;;4992304;28;20080;-58
2022/09/11 10:51:23;;;;;;;3.93;1.40;;;;;;;;;;4992448;28;20105;-59
2022/09/11 10:54:08;;;;;;;4.63;3.40;;;;;;;;;;4992128;28;20349;-58
2022/09/11 10:56:38;;;;;;;2.95;2.13;;;;;;;;;;5000330;28;20126;-57
2022/09/11 10:59:06;;;;;;;3.65;1.25;;;;;;;;;;5008618;28;20030;-59
2022/09/11 11:01:32;;;;;;;5.43;1.40;;;;;;;;;;5007280;28;20041;-57
2022/09/11 11:03:58;;;;;;;2.17;1.50;;;;;;;;;;4997105;28;20022;-54
2022/09/11 11:06:24;;;;;;;2.03;1.30;;;;;;;;;;5003119;28;20268;-57
2022/09/11 11:09:13;;;;;;;6.45;4.30;;;;;;;;;;5011369;28;20064;-54
2022/09/11 11:11:54;;;;;;;15.00;13.40;;;;;;;;;;5001808;28;20034;-54
2022/09/11 11:14:39;;;;;;;9.82;7.05;;;;;;;;;;5001795;28;20026;-56
2022/09/11 11:17:08;;;;;;;24.63;22.10;;;;;;;;;;4999437;28;20467;-55
2022/09/11 11:19:34;;;;;;;5.97;2.78;;;;;;;;;;5008128;28;20030;-52
2022/09/11 11:22:00;;;;;;;1.90;1.70;;;;;;;;;;4994407;28;20022;-55
2022/09/11 11:24:39;;;;;;;2.80;1.70;;;;;;;;;;4997442;28;20450;-52
2022/09/11 11:27:14;;;;;;;2.38;1.90;;;;;;;;;;5001723;28;20265;-53
2022/09/11 11:29:40;;;;;;;2.67;1.45;;;;;;;;;;4999735;28;20017;-56
2022/09/11 11:32:14;;;;;;;3.40;1.88;;;;;;;;;;5001474;28;20041;-56
2022/09/11 11:34:49;;;;;;;2.47;1.65;;;;;;;;;;5001112;28;20395;-51
2022/09/11 11:37:19;;;;;;;5.70;1.88;;;;;;;;;;5007636;28;20042;-54
2022/09/11 11:39:59;;;;;;;2.90;1.60;;;;;;;;;;5001362;28;20037;-56
2022/09/11 11:42:42;;;;;;;3.28;1.83;;;25.60;54.20;;;;;;5000165;28;20026;-51
2022/09/11 11:45:16;;;;;;;2.35;1.77;;;27.00;51.90;;;;;;4994092;28;20030;-54
2022/09/11 11:47:43;;;;;;;3.13;1.73;;;26.90;51.60;;;;;;5001514;28;20030;-56
2022/09/11 11:50:20;;;;;;;4.97;1.77;;;26.80;52.40;;;;;;5004093;28;20109;-56
2022/09/11 11:52:55;;;;;;;3.58;2.40;;;26.60;52.10;;;;;;5006173;28;20363;-53
2022/09/11 11:55:25;;;;;;;2.65;1.88;;;26.50;52.40;;;;;;5015081;28;20034;-55
2022/09/11 11:58:06;;;;;;;3.85;2.53;;;26.60;51.10;;;;;;5014976;28;20029;-53
2022/09/11 12:00:38;;;;;;;3.75;1.90;;;26.70;51.60;;;;;;5014987;28;20030;-58
2022/09/11 12:03:22;;;;;;;1.80;1.70;;;26.70;50.00;;;;;;5014493;28;20030;-56
2022/09/11 12:05:48;;;;;;;5.75;1.90;;;26.60;49.80;;;;;;5014484;28;20084;-54
2022/09/11 12:08:15;;;;;;;4.37;2.37;;;26.70;51.20;;;;;;5013392;28;20026;-54
2022/09/11 12:10:46;;;;;;;3.35;1.70;;;26.90;52.50;;;;;;5014679;28;20026;-57
2022/09/11 12:13:17;;;;;;;4.45;1.73;;;27.10;52.30;;;;;;5014348;28;20105;-56
2022/09/11 12:16:07;;;;;;;2.75;1.70;;;27.30;51.20;;;;;;5013156;28;20557;-52
2022/09/11 12:18:32;;;;;;;2.97;1.52;;;27.60;51.10;;;;;;5014589;28;20060;-51
2022/09/11 12:21:30;;;;;;;2.40;1.83;;;27.60;49.80;;;;;;5006635;28;20065;-54
2022/09/11 12:23:56;;;;;;;5.30;1.70;;;27.60;49.70;;;;;;4994641;28;20038;-55
2022/09/11 12:26:26;;;;;;;3.83;1.80;;;27.50;49.50;;;;;;4995793;28;20030;-55
2022/09/11 12:29:17;;;;;;;2.83;1.88;;;27.50;50.00;;;;;;4994592;28;20513;-54
2022/09/11 12:31:49;;;;;;;1.52;1.38;;;27.50;48.60;;;;;;4986554;28;20509;-54
2022/09/11 12:34:36;;;;;;;4.85;1.65;;;27.60;49.00;;;;;;5013974;28;20109;-54
2022/09/11 12:37:10;;;;;;;3.50;1.92;;;27.70;49.20;;;;;;5004832;28;20065;-56
2022/09/11 12:39:52;;;;;;;3.33;1.98;;;27.90;49.10;;;;;;5008646;28;20033;-57
2022/09/11 12:42:37;;;;;;;3.03;1.45;;;28.00;47.90;;;;;;5014108;28;20025;-56
2022/09/11 12:45:04;;;;;;;3.53;1.63;;;28.10;49.40;;;;;;4993154;28;20037;-57
2022/09/11 12:47:37;;;;;;;2.33;1.67;;;28.30;49.10;;;;;;5013993;28;20053;-57
2022/09/11 12:50:12;;;;;;;3.97;1.83;;;28.50;48.30;;;;;;5014064;28;20487;-56
2022/09/11 12:52:44;;;;;;;2.47;1.45;;;28.50;48.60;;;;;;5007850;28;20394;-55
2022/09/11 12:55:33;;;;;;;2.22;1.45;;;28.60;47.90;;;;;;5002344;28;20037;-52
2022/09/11 12:58:05;;;;;;;3.40;1.75;;;28.70;47.50;;;;;;5003803;28;20501;-53
2022/09/11 13:00:42;;;;;;;4.57;1.50;;;28.70;46.40;;;;;;5002579;28;20022;-52
2022/09/11 13:03:22;;;;;;;3.08;1.88;;;28.70;46.10;;;;;;5010984;28;20037;-55
2022/09/11 13:06:02;;;;;;;3.35;2.25;;;28.50;46.00;;;;;;5012810;28;20103;-56
2022/09/11 13:08:39;;;;;;;8.05;2.03;;;28.50;46.60;;;;;;5013284;28;20095;-56
2022/09/11 13:11:37;;;;;;;2.15;1.95;;;28.40;45.80;;;;;;5013343;28;20113;-52
2022/09/11 13:14:05;;;;;;;4.93;1.67;;;28.50;45.90;;;;;;5010944;28;20026;-54
2022/09/11 13:16:35;;;;;;;4.07;1.58;;;28.60;46.20;;;;;;5013344;28;20060;-55
2022/09/11 13:19:21;;;;;;;1.88;1.67;;;28.80;45.80;;;;;;5012432;28;20463;-57
2022/09/11 13:21:51;;;;;;;4.05;1.48;;;29.10;45.30;;;;;;5012362;28;20088;-53
2022/09/11 13:24:43;;;;;;;10.65;5.40;;;29.50;44.30;;;;;;5012650;28;20394;-54
2022/09/11 13:27:20;;;;;;;4.95;1.90;;;30.00;42.80;;;;;;5009233;28;20022;-56
2022/09/11 13:29:47;;;;;;;4.15;1.73;;;30.60;41.00;;;;;;5012937;28;20472;-60
2022/09/11 13:32:15;;;;;;;4.13;1.80;;;31.70;40.90;;;;;;5012807;28;20414;-56
2022/09/11 13:34:47;;;;;;;6.97;2.08;;;33.50;38.90;;;;;;5012022;28;20037;-57
2022/09/11 13:37:41;;;;;;;1.90;1.40;;;35.10;36.80;;;;;;5012670;28;20057;-58
2022/09/11 13:40:21;;;;;;;3.65;1.23;;;36.30;35.80;;;;;;5008657;28;20081;-57
2022/09/11 13:42:48;;;;;;;1.95;1.52;;;37.90;34.30;;;;;;5002901;28;20025;-55
2022/09/11 13:45:19;;;;;;;3.05;1.35;;;39.40;33.80;;;;;;5012584;28;20033;-57
2022/09/11 13:47:45;;;;;;;4.43;1.92;;;40.40;30.90;;;;;;5012408;28;20106;-58
2022/09/11 13:50:12;;;;;;;;;;;41.20;30.60;;;;;;5013097;28;20100;-57
2022/09/11 13:52:40;;;;;;;4.32;1.80;;;41.70;30.20;;;;;;5012166;28;19905;-59
2022/09/11 13:55:17;;;;;;;13.82;1.98;;;41.70;29.80;;;;;;5012261;28;20049;-58
2022/09/11 13:57:59;;;;;;;1.50;1.40;;;42.50;29.20;;;;;;5011882;28;20061;-58
2022/09/11 14:00:44;;;;;;;3.40;1.30;;;43.10;28.80;;;;;;5011951;28;20033;-58
2022/09/11 14:03:22;;;;;;;4.15;1.67;;;42.70;26.70;;;;;;5003243;28;20023;-58
2022/09/11 14:05:53;;;;;;;3.72;1.30;;;41.70;27.80;;;;;;5008194;28;20478;-57
2022/09/11 14:08:22;;;;;;;1.92;1.20;;;41.40;27.90;;;;;;5011545;28;20025;-58
2022/09/11 14:10:51;;;;;;;4.93;1.30;;;41.60;29.10;;;;;;5011394;28;20489;-58
2022/09/11 14:14:02;;;;;;;2.15;1.38;;;41.30;28.60;;;;;;5000183;28;20053;-58
2022/09/11 14:16:34;;;;;;;2.95;1.50;;;41.20;27.50;;;;;;4989655;28;20035;-58
2022/09/11 14:19:12;;;;;;;2.33;1.25;;;41.10;28.00;;;;;;4973903;28;20097;-58
2022/09/11 14:21:42;;;;;;;1.48;1.33;;;41.40;28.00;;;;;;4999253;28;20065;-58
2022/09/11 14:24:34;;;;;;;2.22;1.33;;;42.50;28.60;;;;;;5011850;28;20022;-57
2022/09/11 14:27:20;;;;;;;3.30;1.30;;;43.30;27.60;;;;;;5010544;28;20068;-58
2022/09/11 14:29:52;;;;;;;3.80;1.50;;;43.10;27.70;;;;;;5011925;28;20053;-58